RJOF(METAR)
07/27 16:00
METAR RJOF 270700Z 24004KT 190V280 9999 FEW030 34/23 Q0999 RMK
1CU030 A2951=
戻る
トップページへ戻る
IMOC Co,.Ltd.